createdAt,value
2023-03-29T00:00:35.192Z,0.00
2023-03-29T00:01:36.494Z,0.00
2023-03-29T00:02:35.237Z,0.00
2023-03-29T00:03:35.273Z,0.00
2023-03-29T00:04:35.249Z,0.00
2023-03-29T00:05:35.216Z,0.00
2023-03-29T00:06:35.190Z,0.00
2023-03-29T00:07:35.152Z,0.00
2023-03-29T00:08:35.173Z,0.00
2023-03-29T00:09:35.120Z,0.00
2023-03-29T00:10:35.103Z,0.00
2023-03-29T00:11:35.090Z,0.00
2023-03-29T00:12:35.129Z,0.00
2023-03-29T00:13:35.089Z,0.00
2023-03-29T00:14:35.051Z,0.00
2023-03-29T00:15:35.052Z,0.00
2023-03-29T00:16:35.074Z,0.00
2023-03-29T00:17:35.087Z,0.00
2023-03-29T00:18:35.004Z,0.00
2023-03-29T00:19:35.016Z,0.00
2023-03-29T00:20:34.994Z,0.00
2023-03-29T00:21:34.984Z,0.00
2023-03-29T00:22:34.994Z,0.00
2023-03-29T00:23:34.969Z,0.00
2023-03-29T00:24:34.948Z,0.00
2023-03-29T00:25:34.939Z,0.00
2023-03-29T00:26:34.918Z,0.00
2023-03-29T00:27:34.968Z,0.00
2023-03-29T00:28:34.890Z,0.00
2023-03-29T00:29:34.898Z,0.00
2023-03-29T00:30:34.876Z,0.00
2023-03-29T00:31:34.933Z,0.00
2023-03-29T00:32:34.932Z,0.00
2023-03-29T00:33:34.837Z,0.00
2023-03-29T00:34:34.825Z,0.00
2023-03-29T00:35:34.870Z,0.00
2023-03-29T00:36:34.811Z,0.00
2023-03-29T00:37:34.843Z,0.00
2023-03-29T00:38:34.780Z,0.00
2023-03-29T00:39:34.782Z,0.00
2023-03-29T00:40:34.768Z,0.00
2023-03-29T00:41:34.781Z,0.00
2023-03-29T00:42:34.774Z,0.00
2023-03-29T00:43:34.742Z,0.00
2023-03-29T00:44:34.726Z,0.00
2023-03-29T00:45:34.711Z,0.00
2023-03-29T00:46:34.736Z,0.00
2023-03-29T00:47:34.788Z,0.00
2023-03-29T00:48:34.682Z,0.00
2023-03-29T00:49:34.678Z,0.00
2023-03-29T00:50:34.650Z,0.00
2023-03-29T00:51:34.647Z,0.00
2023-03-29T00:52:34.672Z,0.00
2023-03-29T00:53:34.645Z,0.00
2023-03-29T00:54:34.601Z,0.00
2023-03-29T00:55:34.597Z,0.00
2023-03-29T00:56:34.711Z,0.00
2023-03-29T00:57:34.610Z,0.00
2023-03-29T00:58:34.562Z,0.00
2023-03-29T00:59:34.559Z,0.00
2023-03-29T01:00:34.541Z,0.00
2023-03-29T01:01:34.553Z,0.00
2023-03-29T01:02:34.837Z,0.00
2023-03-29T01:03:34.586Z,0.00
2023-03-29T01:04:34.501Z,0.00
2023-03-29T01:05:34.500Z,0.00
2023-03-29T01:06:34.544Z,0.00
2023-03-29T01:07:34.508Z,0.00
2023-03-29T01:08:34.476Z,0.00
2023-03-29T01:09:34.462Z,0.00
2023-03-29T01:10:34.424Z,0.00
2023-03-29T01:11:34.419Z,0.00
2023-03-29T01:12:34.445Z,0.00
2023-03-29T01:13:34.402Z,0.00
2023-03-29T01:14:34.397Z,0.00
2023-03-29T01:15:34.379Z,0.00
2023-03-29T01:16:34.439Z,0.00
2023-03-29T01:17:34.435Z,0.00
2023-03-29T01:18:34.338Z,0.00
2023-03-29T01:19:34.339Z,0.00
2023-03-29T01:20:34.338Z,0.00
2023-03-29T01:21:34.313Z,0.00
2023-03-29T01:22:34.365Z,0.00
2023-03-29T01:23:34.296Z,0.00
2023-03-29T01:24:34.278Z,0.00
2023-03-29T01:25:34.305Z,0.00
2023-03-29T01:26:34.255Z,0.00
2023-03-29T01:27:34.286Z,0.00
2023-03-29T01:28:34.230Z,0.00
2023-03-29T01:29:34.226Z,0.00
2023-03-29T01:30:34.207Z,0.00
2023-03-29T01:31:34.225Z,0.00
2023-03-29T01:32:34.320Z,0.00
2023-03-29T01:33:34.183Z,0.00
2023-03-29T01:34:34.160Z,0.00
2023-03-29T01:35:34.187Z,0.00
2023-03-29T01:36:34.148Z,0.00
2023-03-29T01:37:34.210Z,0.00
2023-03-29T01:38:34.117Z,0.00
2023-03-29T01:39:34.104Z,0.00
2023-03-29T01:40:34.099Z,0.00
2023-03-29T01:41:34.105Z,0.00
2023-03-29T01:42:34.116Z,0.00
2023-03-29T01:43:34.086Z,0.00
2023-03-29T01:44:34.070Z,0.00
2023-03-29T01:45:34.089Z,0.00
2023-03-29T01:46:34.180Z,0.00
2023-03-29T01:47:34.123Z,0.00
2023-03-29T01:48:34.066Z,0.00
2023-03-29T01:49:34.033Z,0.00
2023-03-29T01:50:33.982Z,0.00
2023-03-29T01:51:33.971Z,0.00
2023-03-29T01:52:34.087Z,0.00
2023-03-29T01:53:33.954Z,0.00
2023-03-29T01:54:33.936Z,0.00
2023-03-29T01:55:33.941Z,0.00
2023-03-29T01:56:33.909Z,0.00
2023-03-29T01:57:33.942Z,0.00
2023-03-29T01:58:33.954Z,0.00
2023-03-29T01:59:33.899Z,0.00
2023-03-29T02:00:33.879Z,0.00
2023-03-29T02:01:33.898Z,0.00
2023-03-29T02:02:34.054Z,0.00
2023-03-29T02:03:33.997Z,0.00
2023-03-29T02:04:33.828Z,0.00
2023-03-29T02:05:33.816Z,0.00
2023-03-29T02:06:33.821Z,0.00
2023-03-29T02:07:33.822Z,0.00
2023-03-29T02:08:33.779Z,0.00
2023-03-29T02:09:33.782Z,0.00
2023-03-29T02:10:33.765Z,0.00
2023-03-29T02:11:33.744Z,0.00
2023-03-29T02:12:33.777Z,0.00
2023-03-29T02:13:33.717Z,0.00
2023-03-29T02:14:33.727Z,0.00
2023-03-29T02:15:33.813Z,0.00
2023-03-29T02:16:33.687Z,0.00
2023-03-29T02:17:33.773Z,0.00
2023-03-29T02:18:33.670Z,0.00
2023-03-29T02:19:33.675Z,0.00
2023-03-29T02:20:33.646Z,0.00
2023-03-29T02:21:33.655Z,0.00
2023-03-29T02:22:33.665Z,0.00
2023-03-29T02:23:33.620Z,0.00
2023-03-29T02:24:33.608Z,0.00
2023-03-29T02:25:33.625Z,0.00
2023-03-29T02:26:33.589Z,0.00
2023-03-29T02:27:33.611Z,0.00
2023-03-29T02:28:33.570Z,0.00
2023-03-29T02:29:33.556Z,0.00
2023-03-29T02:30:33.538Z,0.00
2023-03-29T02:31:33.559Z,0.00
2023-03-29T02:32:33.552Z,0.00
2023-03-29T02:33:33.541Z,0.00
2023-03-29T02:34:33.485Z,0.00
2023-03-29T02:35:33.523Z,0.00
2023-03-29T02:36:33.475Z,0.00
2023-03-29T02:37:33.462Z,0.00
2023-03-29T02:38:33.494Z,0.00
2023-03-29T02:39:33.440Z,0.00
2023-03-29T02:40:33.429Z,0.00
2023-03-29T02:41:33.420Z,0.00
2023-03-29T02:42:33.433Z,0.00
2023-03-29T02:43:33.421Z,0.00
2023-03-29T02:44:33.383Z,0.00
2023-03-29T02:45:33.359Z,0.00
2023-03-29T02:46:33.366Z,0.00
2023-03-29T02:47:33.392Z,0.00
2023-03-29T02:48:33.363Z,0.00
2023-03-29T02:49:33.324Z,0.00
2023-03-29T02:50:33.342Z,0.00
2023-03-29T02:51:33.318Z,0.00
2023-03-29T02:52:33.294Z,0.00
2023-03-29T02:53:33.332Z,0.00
2023-03-29T02:54:33.277Z,0.00
2023-03-29T02:55:33.259Z,0.00
2023-03-29T02:56:33.246Z,0.00
2023-03-29T02:57:33.236Z,0.00
2023-03-29T02:58:33.262Z,0.00
2023-03-29T02:59:33.216Z,0.00
2023-03-29T03:00:33.201Z,0.00
2023-03-29T03:01:33.212Z,0.00
2023-03-29T03:02:33.223Z,0.00
2023-03-29T03:03:33.327Z,0.00
2023-03-29T03:04:33.160Z,0.00
2023-03-29T03:05:33.160Z,0.00
2023-03-29T03:06:33.145Z,0.00
2023-03-29T03:07:33.130Z,0.00
2023-03-29T03:08:33.179Z,0.00
2023-03-29T03:09:33.105Z,0.00
2023-03-29T03:10:33.121Z,0.00
2023-03-29T03:11:33.086Z,0.00
2023-03-29T03:12:33.074Z,0.00
2023-03-29T03:13:33.094Z,0.00
2023-03-29T03:14:33.059Z,0.00
2023-03-29T03:15:33.028Z,0.00
2023-03-29T03:16:33.042Z,0.00
2023-03-29T03:17:33.013Z,0.00
2023-03-29T03:18:33.033Z,0.00
2023-03-29T03:19:33.004Z,0.00
2023-03-29T03:20:32.988Z,0.00
2023-03-29T03:21:32.976Z,0.00
2023-03-29T03:22:32.953Z,0.00
2023-03-29T03:23:32.972Z,0.00
2023-03-29T03:24:32.936Z,0.00
2023-03-29T03:25:32.916Z,0.00
2023-03-29T03:26:32.902Z,0.00
2023-03-29T03:27:32.892Z,0.00
2023-03-29T03:28:32.923Z,0.00
2023-03-29T03:29:32.879Z,0.00
2023-03-29T03:30:32.877Z,0.00
2023-03-29T03:31:32.914Z,0.00
2023-03-29T03:32:32.856Z,0.00
2023-03-29T03:33:32.858Z,0.00
2023-03-29T03:34:32.889Z,0.00
2023-03-29T03:35:32.837Z,0.00
2023-03-29T03:36:32.819Z,0.00
2023-03-29T03:37:32.777Z,0.00
2023-03-29T03:38:32.809Z,0.00
2023-03-29T03:39:32.772Z,0.00
2023-03-29T03:40:32.779Z,0.00
2023-03-29T03:41:32.740Z,0.00
2023-03-29T03:42:32.761Z,0.00
2023-03-29T03:43:32.739Z,0.00
2023-03-29T03:44:32.709Z,0.00
2023-03-29T03:45:32.704Z,0.00
2023-03-29T03:46:32.698Z,0.00
2023-03-29T03:47:32.704Z,0.00
2023-03-29T03:48:32.705Z,0.00
2023-03-29T03:49:32.642Z,0.00
2023-03-29T03:50:32.643Z,0.00
2023-03-29T03:51:32.640Z,0.00
2023-03-29T03:52:32.658Z,0.00
2023-03-29T03:53:32.643Z,0.00
2023-03-29T03:54:32.610Z,0.00
2023-03-29T03:55:32.577Z,0.00
2023-03-29T03:56:32.599Z,0.00
2023-03-29T03:57:32.566Z,0.00
2023-03-29T03:58:32.591Z,0.00
2023-03-29T03:59:32.552Z,0.00
2023-03-29T04:00:32.526Z,0.00
2023-03-29T04:01:32.521Z,0.00
2023-03-29T04:02:32.574Z,0.00
2023-03-29T04:03:32.592Z,0.00
2023-03-29T04:04:33.513Z,0.00
2023-03-29T04:05:32.463Z,0.00
2023-03-29T04:06:32.481Z,0.00
2023-03-29T04:07:32.443Z,0.00
2023-03-29T04:08:32.470Z,0.00
2023-03-29T04:09:32.437Z,0.00
2023-03-29T04:10:32.431Z,0.00
2023-03-29T04:11:32.410Z,4.00
2023-03-29T04:12:32.389Z,4.00
2023-03-29T04:13:32.418Z,0.00
2023-03-29T04:14:32.421Z,4.00
2023-03-29T04:15:32.362Z,4.00
2023-03-29T04:16:32.356Z,4.00
2023-03-29T04:17:32.358Z,4.00
2023-03-29T04:18:32.481Z,4.00
2023-03-29T04:19:32.327Z,8.00
2023-03-29T04:20:32.297Z,8.00
2023-03-29T04:21:32.287Z,8.00
2023-03-29T04:22:32.330Z,12.00
2023-03-29T04:23:32.288Z,12.00
2023-03-29T04:24:32.277Z,16.00
2023-03-29T04:25:32.243Z,20.00
2023-03-29T04:26:32.243Z,24.00
2023-03-29T04:27:32.233Z,24.00
2023-03-29T04:28:32.268Z,32.00
2023-03-29T04:29:32.207Z,32.00
2023-03-29T04:30:32.210Z,44.00
2023-03-29T04:31:32.308Z,52.00
2023-03-29T04:32:32.285Z,60.00
2023-03-29T04:33:32.209Z,64.00
2023-03-29T04:34:32.174Z,76.00
2023-03-29T04:35:32.152Z,88.00
2023-03-29T04:36:32.138Z,104.00
2023-03-29T04:37:32.120Z,120.00
2023-03-29T04:38:32.152Z,136.00
2023-03-29T04:39:32.178Z,156.00
2023-03-29T04:40:32.102Z,176.00
2023-03-29T04:41:32.070Z,196.00
2023-03-29T04:42:32.070Z,220.00
2023-03-29T04:43:32.101Z,244.00
2023-03-29T04:44:32.029Z,272.00
2023-03-29T04:45:32.053Z,300.00
2023-03-29T04:46:32.078Z,328.00
2023-03-29T04:47:32.050Z,356.00
2023-03-29T04:48:32.059Z,388.00
2023-03-29T04:49:32.004Z,420.00
2023-03-29T04:50:31.977Z,452.00
2023-03-29T04:51:31.958Z,488.00
2023-03-29T04:52:31.941Z,528.00
2023-03-29T04:53:31.983Z,568.00
2023-03-29T04:54:31.944Z,612.00
2023-03-29T04:55:31.920Z,660.00
2023-03-29T04:56:31.908Z,708.00
2023-03-29T04:57:31.908Z,756.00
2023-03-29T04:58:32.653Z,808.00
2023-03-29T04:59:31.888Z,864.00
2023-03-29T05:00:31.894Z,924.00
2023-03-29T05:01:31.904Z,984.00
2023-03-29T05:02:31.884Z,1040.00
2023-03-29T05:03:31.875Z,1100.00
2023-03-29T05:04:31.912Z,1160.00
2023-03-29T05:05:31.816Z,1216.00
2023-03-29T05:06:31.812Z,1268.00
2023-03-29T05:07:31.780Z,1312.00
2023-03-29T05:08:31.819Z,1352.00
2023-03-29T05:09:34.325Z,1392.00
2023-03-29T05:10:31.767Z,1448.00
2023-03-29T05:11:31.767Z,1516.00
2023-03-29T05:12:31.714Z,1584.00
2023-03-29T05:13:31.761Z,1632.00
2023-03-29T05:14:31.766Z,1680.00
2023-03-29T05:15:31.719Z,1724.00
2023-03-29T05:16:31.798Z,1780.00
2023-03-29T05:17:31.741Z,1856.00
2023-03-29T05:18:31.721Z,1936.00
2023-03-29T05:19:31.956Z,2032.00
2023-03-29T05:20:31.643Z,2136.00
2023-03-29T05:21:31.608Z,2244.00
2023-03-29T05:22:31.600Z,2356.00
2023-03-29T05:23:31.624Z,2468.00
2023-03-29T05:24:31.598Z,2584.00
2023-03-29T05:25:31.571Z,2700.00
2023-03-29T05:26:31.576Z,2832.00
2023-03-29T05:27:31.562Z,2944.00
2023-03-29T05:28:31.611Z,3048.00
2023-03-29T05:29:31.541Z,3160.00
2023-03-29T05:30:31.531Z,3268.00
2023-03-29T05:31:31.518Z,3356.00
2023-03-29T05:32:31.558Z,3428.00
2023-03-29T05:33:31.484Z,3496.00
2023-03-29T05:34:31.514Z,3568.00
2023-03-29T05:35:31.470Z,3608.00
2023-03-29T05:36:31.476Z,3636.00
2023-03-29T05:37:31.448Z,3672.00
2023-03-29T05:38:31.470Z,3720.00
2023-03-29T05:39:31.468Z,3752.00
2023-03-29T05:40:31.404Z,3760.00
2023-03-29T05:41:31.394Z,3780.00
2023-03-29T05:42:31.385Z,3796.00
2023-03-29T05:43:31.346Z,3848.00
2023-03-29T05:44:31.387Z,3888.00
2023-03-29T05:45:31.351Z,3920.00
2023-03-29T05:46:31.333Z,3948.00
2023-03-29T05:47:31.358Z,3968.00
2023-03-29T05:48:31.306Z,3996.00
2023-03-29T05:49:31.340Z,4008.00
2023-03-29T05:50:31.286Z,4020.00
2023-03-29T05:51:31.258Z,4040.00
2023-03-29T05:52:31.242Z,4048.00
2023-03-29T05:53:31.230Z,4084.00
2023-03-29T05:54:31.304Z,4160.00
2023-03-29T05:55:31.220Z,4296.00
2023-03-29T05:56:31.240Z,4496.00
2023-03-29T05:57:31.199Z,4704.00
2023-03-29T05:58:31.207Z,4860.00
2023-03-29T05:59:31.242Z,4996.00
2023-03-29T06:00:31.178Z,5116.00
2023-03-29T06:01:31.177Z,5224.00
2023-03-29T06:02:31.314Z,5332.00
2023-03-29T06:03:31.267Z,5420.00
2023-03-29T06:04:31.218Z,5508.00
2023-03-29T06:05:31.134Z,5608.00
2023-03-29T06:06:31.093Z,5736.00
2023-03-29T06:07:31.092Z,5896.00
2023-03-29T06:08:31.122Z,6092.00
2023-03-29T06:09:31.111Z,6348.00
2023-03-29T06:10:31.054Z,6684.00
2023-03-29T06:11:31.032Z,7048.00
2023-03-29T06:12:31.040Z,7396.00
2023-03-29T06:13:31.020Z,7776.00
2023-03-29T06:14:31.049Z,8168.00
2023-03-29T06:15:31.004Z,8580.00
2023-03-29T06:16:31.014Z,9024.00
2023-03-29T06:17:31.010Z,9412.00
2023-03-29T06:18:30.966Z,9688.00
2023-03-29T06:19:31.000Z,9888.00
2023-03-29T06:20:30.952Z,9928.00
2023-03-29T06:21:30.919Z,9916.00
2023-03-29T06:22:30.910Z,9984.00
2023-03-29T06:23:30.921Z,10116.00
2023-03-29T06:24:30.934Z,10264.00
2023-03-29T06:25:30.876Z,10316.00
2023-03-29T06:26:30.899Z,10440.00
2023-03-29T06:27:30.869Z,10612.00
2023-03-29T06:28:30.861Z,10668.00
2023-03-29T06:29:30.890Z,10676.00
2023-03-29T06:30:30.868Z,10720.00
2023-03-29T06:31:30.849Z,10716.00
2023-03-29T06:32:30.848Z,10740.00
2023-03-29T06:33:30.809Z,10740.00
2023-03-29T06:34:30.831Z,10752.00
2023-03-29T06:35:30.818Z,10844.00
2023-03-29T06:36:30.771Z,11024.00
2023-03-29T06:37:30.749Z,11280.00
2023-03-29T06:38:30.758Z,11624.00
2023-03-29T06:39:30.762Z,11988.00
2023-03-29T06:40:30.756Z,12352.00
2023-03-29T06:41:30.690Z,12668.00
2023-03-29T06:42:30.720Z,12916.00
2023-03-29T06:43:30.685Z,13112.00
2023-03-29T06:44:30.734Z,13280.00
2023-03-29T06:45:30.664Z,13404.00
2023-03-29T06:46:30.661Z,13432.00
2023-03-29T06:47:30.711Z,13388.00
2023-03-29T06:48:30.627Z,13256.00
2023-03-29T06:49:30.630Z,13204.00
2023-03-29T06:50:30.608Z,13288.00
2023-03-29T06:51:30.593Z,13452.00
2023-03-29T06:52:30.563Z,13676.00
2023-03-29T06:53:30.558Z,13880.00
2023-03-29T06:54:30.589Z,14188.00
2023-03-29T06:55:30.540Z,14436.00
2023-03-29T06:56:30.532Z,14652.00
2023-03-29T06:57:30.563Z,14800.00
2023-03-29T06:58:30.506Z,14896.00
2023-03-29T06:59:30.517Z,14936.00
2023-03-29T07:00:30.494Z,14928.00
2023-03-29T07:01:30.525Z,14800.00
2023-03-29T07:02:30.505Z,14684.00
2023-03-29T07:03:30.450Z,14620.00
2023-03-29T07:04:30.491Z,14352.00
2023-03-29T07:05:30.414Z,14032.00
2023-03-29T07:06:30.435Z,13712.00
2023-03-29T07:07:30.539Z,13432.00
2023-03-29T07:08:30.436Z,13304.00
2023-03-29T07:09:30.426Z,13404.00
2023-03-29T07:10:30.368Z,13736.00
2023-03-29T07:11:30.374Z,14260.00
2023-03-29T07:12:30.350Z,14756.00
2023-03-29T07:13:30.354Z,15188.00
2023-03-29T07:14:30.385Z,15424.00
2023-03-29T07:15:30.332Z,15736.00
2023-03-29T07:16:30.350Z,16092.00
2023-03-29T07:17:30.295Z,16472.00
2023-03-29T07:18:30.292Z,16944.00
2023-03-29T07:19:30.421Z,17600.00
2023-03-29T07:20:30.260Z,18048.00
2023-03-29T07:21:30.234Z,18400.00
2023-03-29T07:22:30.253Z,18720.00
2023-03-29T07:23:30.220Z,18944.00
2023-03-29T07:24:30.252Z,19008.00
2023-03-29T07:25:30.198Z,19040.00
2023-03-29T07:26:30.422Z,19072.00
2023-03-29T07:27:30.185Z,19072.00
2023-03-29T07:28:30.161Z,19200.00
2023-03-29T07:29:30.464Z,19488.00
2023-03-29T07:30:32.032Z,19936.00
2023-03-29T07:31:30.121Z,20416.00
2023-03-29T07:32:30.142Z,20896.00
2023-03-29T07:33:30.180Z,21184.00
2023-03-29T07:34:30.136Z,21472.00
2023-03-29T07:35:30.097Z,21696.00
2023-03-29T07:36:30.067Z,21984.00
2023-03-29T07:37:30.061Z,22304.00
2023-03-29T07:38:30.042Z,22784.00
2023-03-29T07:39:30.078Z,23296.00
2023-03-29T07:40:30.014Z,23456.00
2023-03-29T07:41:30.048Z,23584.00
2023-03-29T07:42:30.025Z,23520.00
2023-03-29T07:43:29.987Z,23360.00
2023-03-29T07:44:30.037Z,23264.00
2023-03-29T07:45:30.044Z,22848.00
2023-03-29T07:46:29.979Z,22976.00
2023-03-29T07:47:29.990Z,22528.00
2023-03-29T07:48:29.923Z,21024.00
2023-03-29T07:49:29.954Z,21088.00
2023-03-29T07:50:29.887Z,21696.00
2023-03-29T07:51:29.890Z,22848.00
2023-03-29T07:52:29.890Z,23776.00
2023-03-29T07:53:29.906Z,24096.00
2023-03-29T07:54:29.893Z,24544.00
2023-03-29T07:55:29.845Z,24896.00
2023-03-29T07:56:29.865Z,25184.00
2023-03-29T07:57:29.860Z,24800.00
2023-03-29T07:58:29.820Z,24384.00
2023-03-29T07:59:29.864Z,24288.00
2023-03-29T08:00:29.816Z,24096.00
2023-03-29T08:01:29.871Z,23808.00
2023-03-29T08:02:30.093Z,23648.00
2023-03-29T08:03:29.814Z,23680.00
2023-03-29T08:04:29.880Z,23808.00
2023-03-29T08:05:40.837Z,23904.00
2023-03-29T08:06:30.773Z,24256.00
2023-03-29T08:07:29.706Z,24800.00
2023-03-29T08:08:29.721Z,25664.00
2023-03-29T08:09:29.733Z,26176.00
2023-03-29T08:10:29.682Z,26848.00
2023-03-29T08:11:29.691Z,28448.00
2023-03-29T08:12:29.663Z,28064.00
2023-03-29T08:13:29.645Z,28800.00
2023-03-29T08:14:29.683Z,29216.00
2023-03-29T08:15:29.656Z,28512.00
2023-03-29T08:16:29.665Z,28736.00
2023-03-29T08:17:29.629Z,28832.00
2023-03-29T08:18:30.060Z,27552.00
2023-03-29T08:19:29.612Z,27232.00
2023-03-29T08:20:29.553Z,27104.00
2023-03-29T08:21:29.565Z,27392.00
2023-03-29T08:22:29.566Z,27648.00
2023-03-29T08:23:29.525Z,28448.00
2023-03-29T08:24:29.568Z,28288.00
2023-03-29T08:25:29.517Z,27808.00
2023-03-29T08:26:29.496Z,27232.00
2023-03-29T08:27:29.497Z,27488.00
2023-03-29T08:28:29.461Z,28160.00
2023-03-29T08:29:29.497Z,32544.00
2023-03-29T08:30:29.492Z,33856.00
2023-03-29T08:31:29.532Z,34176.00
2023-03-29T08:32:29.458Z,37440.00
2023-03-29T08:33:29.420Z,44448.00
2023-03-29T08:34:29.400Z,44032.00
2023-03-29T08:35:29.443Z,51104.00
2023-03-29T08:36:29.406Z,35072.00
2023-03-29T08:37:29.378Z,36352.00
2023-03-29T08:38:29.351Z,33536.00
2023-03-29T08:39:29.359Z,31520.00
2023-03-29T08:40:29.394Z,28288.00
2023-03-29T08:41:29.347Z,28736.00
2023-03-29T08:42:29.307Z,29856.00
2023-03-29T08:43:29.317Z,34816.00
2023-03-29T08:44:29.281Z,37920.00
2023-03-29T08:45:29.357Z,39808.00
2023-03-29T08:46:34.799Z,47328.00
2023-03-29T08:47:30.329Z,41568.00
2023-03-29T08:48:29.236Z,44096.00
2023-03-29T08:49:29.229Z,40768.00
2023-03-29T08:50:29.292Z,45120.00
2023-03-29T08:51:29.197Z,52288.00
2023-03-29T08:52:29.196Z,44224.00
2023-03-29T08:53:29.191Z,42656.00
2023-03-29T08:54:29.185Z,47840.00
2023-03-29T08:55:29.207Z,45728.00
2023-03-29T08:56:31.452Z,40864.00
2023-03-29T08:57:29.136Z,38144.00
2023-03-29T08:58:29.151Z,35200.00
2023-03-29T08:59:29.126Z,33024.00
2023-03-29T09:00:29.127Z,33376.00
2023-03-29T09:01:29.094Z,35072.00
2023-03-29T09:02:29.180Z,33984.00
2023-03-29T09:03:29.157Z,34016.00
2023-03-29T09:04:29.057Z,35072.00
2023-03-29T09:05:29.080Z,36480.00
2023-03-29T09:06:29.021Z,35616.00
2023-03-29T09:07:29.040Z,33760.00
2023-03-29T09:08:29.020Z,34880.00
2023-03-29T09:09:29.007Z,34528.00
2023-03-29T09:10:29.028Z,34752.00
2023-03-29T09:11:28.992Z,35488.00
2023-03-29T09:12:28.963Z,37760.00
2023-03-29T09:13:28.983Z,38752.00
2023-03-29T09:14:28.934Z,37664.00
2023-03-29T09:15:28.977Z,37312.00
2023-03-29T09:16:28.954Z,37472.00
2023-03-29T09:17:28.921Z,36896.00
2023-03-29T09:18:28.914Z,36832.00
2023-03-29T09:19:28.864Z,37344.00
2023-03-29T09:20:28.922Z,37600.00
2023-03-29T09:21:28.845Z,37184.00
2023-03-29T09:22:28.868Z,37536.00
2023-03-29T09:23:28.842Z,38720.00
2023-03-29T09:24:28.855Z,39552.00
2023-03-29T09:25:28.852Z,40064.00
2023-03-29T09:26:28.799Z,41280.00
2023-03-29T09:27:28.813Z,42784.00
2023-03-29T09:28:28.752Z,45024.00
2023-03-29T09:29:28.786Z,50400.00
2023-03-29T09:30:28.797Z,43136.00
2023-03-29T09:31:28.807Z,47328.00
2023-03-29T09:32:28.739Z,49312.00
2023-03-29T09:33:28.732Z,42176.00
2023-03-29T09:34:28.715Z,39712.00
2023-03-29T09:35:28.747Z,35968.00
2023-03-29T09:36:28.678Z,34816.00
2023-03-29T09:37:28.691Z,34080.00
2023-03-29T09:38:28.713Z,31616.00
2023-03-29T09:39:28.737Z,27808.00
2023-03-29T09:40:28.698Z,27104.00
2023-03-29T09:41:28.650Z,27712.00
2023-03-29T09:42:28.626Z,31072.00
2023-03-29T09:43:28.609Z,32672.00
2023-03-29T09:44:31.344Z,32768.00
2023-03-29T09:45:28.608Z,33376.00
2023-03-29T09:46:28.563Z,33344.00
2023-03-29T09:47:28.574Z,32672.00
2023-03-29T09:48:28.552Z,31616.00
2023-03-29T09:49:28.522Z,30752.00
2023-03-29T09:50:31.710Z,32448.00
2023-03-29T09:51:28.502Z,30688.00
2023-03-29T09:52:28.518Z,30656.00
2023-03-29T09:53:28.550Z,31232.00
2023-03-29T09:54:28.472Z,30272.00
2023-03-29T09:55:28.519Z,30080.00
2023-03-29T09:56:28.446Z,31296.00
2023-03-29T09:57:28.577Z,32768.00
2023-03-29T09:58:28.437Z,34976.00
2023-03-29T09:59:28.440Z,36256.00
2023-03-29T10:00:28.489Z,35936.00
2023-03-29T10:01:28.453Z,35552.00
2023-03-29T10:02:28.422Z,40736.00
2023-03-29T10:03:28.384Z,35616.00
2023-03-29T10:04:28.405Z,32768.00
2023-03-29T10:05:28.398Z,31488.00
2023-03-29T10:06:28.343Z,32608.00
2023-03-29T10:07:28.352Z,30944.00
2023-03-29T10:08:28.334Z,29760.00
2023-03-29T10:09:28.304Z,29248.00
2023-03-29T10:10:28.350Z,28832.00
2023-03-29T10:11:28.326Z,29536.00
2023-03-29T10:12:28.277Z,30496.00
2023-03-29T10:13:28.253Z,33280.00
2023-03-29T10:14:28.241Z,35584.00
2023-03-29T10:15:29.983Z,37856.00
2023-03-29T10:16:28.225Z,40928.00
2023-03-29T10:17:28.293Z,40448.00
2023-03-29T10:18:28.215Z,38368.00
2023-03-29T10:19:28.222Z,45344.00
2023-03-29T10:20:28.200Z,67904.00
2023-03-29T10:21:28.240Z,69696.00
2023-03-29T10:22:28.165Z,55200.00
2023-03-29T10:23:28.153Z,60224.00
2023-03-29T10:24:28.161Z,52512.00
2023-03-29T10:25:28.121Z,51296.00
2023-03-29T10:26:28.153Z,48096.00
2023-03-29T10:27:28.131Z,48064.00
2023-03-29T10:28:28.089Z,47008.00
2023-03-29T10:29:28.074Z,56096.00
2023-03-29T10:30:28.076Z,43232.00
2023-03-29T10:31:28.166Z,62560.00
2023-03-29T10:32:28.045Z,57632.00
2023-03-29T10:33:28.047Z,51744.00
2023-03-29T10:34:28.029Z,42144.00
2023-03-29T10:35:28.024Z,38976.00
2023-03-29T10:36:28.023Z,31040.00
2023-03-29T10:37:27.983Z,32672.00
2023-03-29T10:38:27.972Z,51872.00
2023-03-29T10:39:28.019Z,57312.00
2023-03-29T10:40:27.958Z,60736.00
2023-03-29T10:41:27.979Z,54912.00
2023-03-29T10:42:27.920Z,59968.00
2023-03-29T10:43:27.961Z,42656.00
2023-03-29T10:44:28.632Z,55584.00
2023-03-29T10:45:27.925Z,49600.00
2023-03-29T10:46:27.971Z,48224.00
2023-03-29T10:47:27.928Z,39936.00
2023-03-29T10:48:27.848Z,45088.00
2023-03-29T10:49:27.857Z,37248.00
2023-03-29T10:50:27.845Z,48736.00
2023-03-29T10:51:27.903Z,62560.00
2023-03-29T10:52:27.804Z,67712.00
2023-03-29T10:53:27.815Z,53952.00
2023-03-29T10:54:27.894Z,52896.00
2023-03-29T10:55:27.783Z,48896.00
2023-03-29T10:56:27.810Z,65472.00
2023-03-29T10:57:27.815Z,62048.00
2023-03-29T10:58:27.761Z,62624.00
2023-03-29T10:59:27.738Z,63712.00
2023-03-29T11:00:27.752Z,65376.00
2023-03-29T11:01:27.779Z,66048.00
2023-03-29T11:02:27.753Z,62912.00
2023-03-29T11:03:27.776Z,69216.00
2023-03-29T11:04:27.690Z,62464.00
2023-03-29T11:05:27.679Z,58560.00
2023-03-29T11:06:27.718Z,67136.00
2023-03-29T11:07:27.628Z,60896.00
2023-03-29T11:08:30.428Z,31456.00
2023-03-29T11:09:27.620Z,28192.00
2023-03-29T11:10:27.642Z,23712.00
2023-03-29T11:11:27.627Z,33216.00
2023-03-29T11:12:27.599Z,52256.00
2023-03-29T11:13:27.578Z,70016.00
2023-03-29T11:14:27.537Z,77408.00
2023-03-29T11:15:27.537Z,76704.00
2023-03-29T11:16:27.638Z,68352.00
2023-03-29T11:17:27.580Z,61984.00
2023-03-29T11:18:27.518Z,53024.00
2023-03-29T11:19:27.518Z,54016.00
2023-03-29T11:20:27.493Z,60160.00
2023-03-29T11:21:27.522Z,52992.00
2023-03-29T11:22:27.489Z,55584.00
2023-03-29T11:23:27.600Z,73632.00
2023-03-29T11:24:27.478Z,32928.00
2023-03-29T11:25:29.621Z,40960.00
2023-03-29T11:26:27.498Z,49280.00
2023-03-29T11:27:27.417Z,58368.00
2023-03-29T11:28:27.405Z,38592.00
2023-03-29T11:29:27.390Z,36672.00
2023-03-29T11:30:27.389Z,43680.00
2023-03-29T11:31:27.461Z,40800.00
2023-03-29T11:32:27.390Z,43456.00
2023-03-29T11:33:27.357Z,45792.00
2023-03-29T11:34:27.332Z,37760.00
2023-03-29T11:35:27.310Z,41088.00
2023-03-29T11:36:27.365Z,38400.00
2023-03-29T11:37:27.333Z,43648.00
2023-03-29T11:38:27.284Z,35296.00
2023-03-29T11:39:27.262Z,32800.00
2023-03-29T11:40:27.293Z,32800.00
2023-03-29T11:41:27.334Z,30368.00
2023-03-29T11:42:27.293Z,28672.00
2023-03-29T11:43:27.255Z,30336.00
2023-03-29T11:44:27.234Z,35488.00
2023-03-29T11:45:27.201Z,38528.00
2023-03-29T11:46:27.298Z,36608.00
2023-03-29T11:47:27.233Z,41568.00
2023-03-29T11:48:27.177Z,56544.00
2023-03-29T11:49:27.163Z,54240.00
2023-03-29T11:50:27.155Z,68320.00
2023-03-29T11:51:27.160Z,51808.00
2023-03-29T11:52:27.131Z,70592.00
2023-03-29T11:53:27.099Z,45568.00
2023-03-29T11:54:27.099Z,57184.00
2023-03-29T11:55:27.075Z,50944.00
2023-03-29T11:56:27.104Z,70976.00
2023-03-29T11:57:27.233Z,40384.00
2023-03-29T11:58:27.081Z,36064.00
2023-03-29T11:59:27.050Z,59552.00
2023-03-29T12:00:27.043Z,45056.00
2023-03-29T12:01:27.062Z,46080.00
2023-03-29T12:02:27.040Z,41792.00
2023-03-29T12:03:27.035Z,43712.00
2023-03-29T12:04:27.037Z,77120.00
2023-03-29T12:05:26.972Z,36416.00
2023-03-29T12:06:26.987Z,44256.00
2023-03-29T12:07:26.966Z,61056.00
2023-03-29T12:08:27.003Z,42304.00
2023-03-29T12:09:26.916Z,63168.00
2023-03-29T12:10:27.047Z,76928.00
2023-03-29T12:11:26.930Z,46240.00
2023-03-29T12:12:26.896Z,38720.00
2023-03-29T12:13:26.895Z,31040.00
2023-03-29T12:14:28.102Z,28384.00
2023-03-29T12:15:26.841Z,27776.00
2023-03-29T12:16:26.897Z,28928.00
2023-03-29T12:17:26.856Z,29568.00
2023-03-29T12:18:26.843Z,29824.00
2023-03-29T12:19:26.844Z,33248.00
2023-03-29T12:20:26.817Z,34816.00